Time;durP1;ratioP1;P1;durP2;ratioP2;P2;SDS_P1;SDS_P2;PMS_P1;PMS_P2;Temp;Humidity;BMP_temperature;BMP_pressure;BME280_temperature;BME280_humidity;BME280_pressure;Samples;Min_cycle;Max_cycle;Signal;HPM_P1;HPM_P2
2024/04/17 00:01:07;;;;;;;6.97;1.80;;;7.20;99.90;;;;;;5356896;26;20467;-73
2024/04/17 00:03:33;;;;;;;2.13;1.63;;;7.30;99.90;;;;;;5355408;26;20697;-74
2024/04/17 00:06:02;;;;;;;6.33;1.90;;;7.30;99.90;;;;;;5352415;26;20454;-74
2024/04/17 00:08:27;;;;;;;1.60;1.43;;;7.20;99.90;;;;;;5354976;26;20563;-73
2024/04/17 00:10:56;;;;;;;2.40;1.83;;;7.30;99.90;;;;;;5353253;26;20484;-73
2024/04/17 00:13:22;;;;;;;7.70;2.30;;;7.20;99.90;;;;;;5349991;26;20383;-74
2024/04/17 00:15:50;;;;;;;10.13;2.23;;;7.10;99.90;;;;;;5346614;26;20982;-73
2024/04/17 00:18:19;;;;;;;3.50;2.03;;;7.10;99.90;;;;;;5353291;26;20352;-74
2024/04/17 00:20:47;;;;;;;1.93;1.80;;;7.10;99.90;;;;;;5350107;26;20981;-74
2024/04/17 00:23:13;;;;;;;3.83;1.80;;;7.10;99.90;;;;;;5353629;26;21158;-74
2024/04/17 00:25:41;;;;;;;2.27;1.77;;;7.10;99.90;;;;;;5354583;26;20466;-73
2024/04/17 00:28:07;;;;;;;7.33;2.37;;;6.90;99.90;;;;;;5351040;26;20344;-74
2024/04/17 00:30:35;;;;;;;12.97;2.00;;;6.90;99.90;;;;;;5352668;26;20563;-73
2024/04/17 00:33:01;;;;;;;12.97;2.50;;;6.90;99.90;;;;;;5332198;26;20627;-73
2024/04/17 00:35:32;;;;;;;6.50;2.00;;;6.90;99.90;;;;;;5347159;26;20505;-73
2024/04/17 00:37:58;;;;;;;5.20;1.60;;;6.90;99.90;;;;;;5352159;26;21370;-73
2024/04/17 00:40:27;;;;;;;5.10;1.90;;;6.90;99.90;;;;;;5349178;26;20633;-74
2024/04/17 00:42:53;;;;;;;8.80;2.50;;;6.80;99.90;;;;;;5344798;26;20255;-74
2024/04/17 00:45:21;;;;;;;2.27;1.60;;;6.70;99.90;;;;;;5353074;26;20547;-73
2024/04/17 00:47:47;;;;;;;1.70;1.20;;;6.50;99.90;;;;;;5351384;26;20486;-74
2024/04/17 00:50:16;;;;;;;3.73;2.03;;;6.60;99.90;;;;;;5352914;26;20522;-73
2024/04/17 00:52:46;;;;;;;1.93;1.77;;;6.50;99.90;;;;;;5349306;26;21132;-73
2024/04/17 00:55:14;;;;;;;3.33;2.30;;;6.40;99.90;;;;;;5354067;26;20525;-75
2024/04/17 00:57:43;;;;;;;6.17;2.30;;;6.40;99.90;;;;;;5350319;26;20502;-73
2024/04/17 01:00:13;;;;;;;3.43;1.77;;;6.50;99.90;;;;;;5352713;26;20905;-74
2024/04/17 01:02:39;;;;;;;2.20;2.10;;;6.50;99.90;;;;;;5345992;26;20462;-74
2024/04/17 01:05:08;;;;;;;8.33;2.53;;;6.50;99.90;;;;;;5352500;26;20564;-73
2024/04/17 01:07:34;;;;;;;2.23;1.77;;;6.50;99.90;;;;;;5354463;26;20288;-74
2024/04/17 01:10:05;;;;;;;6.10;3.43;;;6.40;99.90;;;;;;5356836;26;20536;-73
2024/04/17 01:12:34;;;;;;;6.63;1.50;;;6.20;99.90;;;;;;5343208;26;20519;-73
2024/04/17 01:15:02;;;;;;;2.10;1.90;;;6.00;99.90;;;;;;5356970;26;20494;-73
2024/04/17 01:17:28;;;;;;;3.60;1.80;;;5.90;99.90;;;;;;5350158;26;20571;-73
2024/04/17 01:19:56;;;;;;;11.90;2.93;;;5.80;99.90;;;;;;5351386;26;20932;-73
2024/04/17 01:22:22;;;;;;;8.43;2.67;;;5.60;99.90;;;;;;5346117;26;20248;-73
2024/04/17 01:24:53;;;;;;;12.60;1.90;;;5.80;99.90;;;;;;5353792;26;20598;-73
2024/04/17 01:27:19;;;;;;;3.83;1.80;;;6.00;99.90;;;;;;5352808;26;20255;-73
2024/04/17 01:29:47;;;;;;;2.80;1.50;;;6.00;99.90;;;;;;5358544;26;20578;-73
2024/04/17 01:32:13;;;;;;;2.50;1.50;;;5.90;99.90;;;;;;5356137;26;20315;-73
2024/04/17 01:34:42;;;;;;;5.20;2.70;;;5.90;99.90;;;;;;5350520;26;20550;-74
2024/04/17 01:37:08;;;;;;;8.50;1.93;;;6.00;99.90;;;;;;5342565;26;20586;-73
2024/04/17 01:39:36;;;;;;;2.53;1.53;;;6.00;99.90;;;;;;5348063;26;20474;-73
2024/04/17 01:42:08;;;;;;;4.10;2.67;;;5.80;99.90;;;;;;5351490;26;20308;-74
2024/04/17 01:44:34;;;;;;;6.77;2.60;;;5.80;99.90;;;;;;5348245;26;20570;-73
2024/04/17 01:47:02;;;;;;;3.10;1.90;;;5.80;99.90;;;;;;5342332;26;20527;-72
2024/04/17 01:49:28;;;;;;;2.60;1.90;;;5.70;99.90;;;;;;5349649;26;20804;-73
2024/04/17 01:51:56;;;;;;;4.00;2.57;;;5.80;99.90;;;;;;5347280;26;20586;-73
2024/04/17 01:54:22;;;;;;;3.07;1.83;;;5.90;99.90;;;;;;5346732;26;20253;-73
2024/04/17 01:56:51;;;;;;;9.93;2.37;;;6.00;99.90;;;;;;5342050;26;20464;-73
2024/04/17 01:59:20;;;;;;;1.80;1.70;;;5.90;99.90;;;;;;5344728;26;20361;-74
2024/04/17 02:01:48;;;;;;;5.33;2.77;;;5.80;99.90;;;;;;5346490;26;20458;-73
2024/04/17 02:04:14;;;;;;;2.17;1.97;;;5.70;99.90;;;;;;5346272;26;21295;-72
2024/04/17 02:06:42;;;;;;;3.13;1.67;;;5.70;99.90;;;;;;5344356;26;20448;-73
2024/04/17 02:09:08;;;;;;;2.30;1.60;;;5.70;99.90;;;;;;5351457;26;20743;-73
2024/04/17 02:11:36;;;;;;;1.90;1.50;;;5.80;99.90;;;;;;5343074;26;20709;-73
2024/04/17 02:14:02;;;;;;;3.53;2.17;;;5.80;99.90;;;;;;5353547;26;20346;-73
2024/04/17 02:16:33;;;;;;;4.77;2.10;;;5.90;99.90;;;;;;5349096;26;20555;-73
2024/04/17 02:18:59;;;;;;;2.37;1.73;;;5.80;99.90;;;;;;5348907;26;20374;-74
2024/04/17 02:21:27;;;;;;;1.83;1.50;;;5.80;99.90;;;;;;5350976;26;20454;-73
2024/04/17 02:23:53;;;;;;;2.80;2.13;;;5.80;99.90;;;;;;5349634;26;20256;-73
2024/04/17 02:26:21;;;;;;;2.70;1.57;;;5.80;99.90;;;;;;5348189;26;21142;-73
2024/04/17 02:28:47;;;;;;;3.97;2.00;;;5.70;99.90;;;;;;5350086;26;20252;-73
2024/04/17 02:31:16;;;;;;;3.90;2.17;;;5.80;99.90;;;;;;5349131;26;21877;-73
2024/04/17 02:33:44;;;;;;;4.30;3.17;;;5.60;99.90;;;;;;5340241;26;20608;-73
2024/04/17 02:36:13;;;;;;;5.60;2.43;;;5.40;99.90;;;;;;5348987;26;20517;-73
2024/04/17 02:38:39;;;;;;;2.70;1.90;;;5.40;99.90;;;;;;5351195;26;20458;-73
2024/04/17 02:41:07;;;;;;;6.73;2.30;;;5.30;99.90;;;;;;5342895;26;20498;-73
2024/04/17 02:43:33;;;;;;;2.30;1.83;;;5.30;99.90;;;;;;5359307;26;20247;-73
2024/04/17 02:46:01;;;;;;;1.50;1.40;;;5.30;99.90;;;;;;5349858;26;20572;-73
2024/04/17 02:48:27;;;;;;;2.40;2.10;;;5.30;99.90;;;;;;5354986;26;20583;-73
2024/04/17 02:50:58;;;;;;;4.10;1.60;;;5.30;99.90;;;;;;5353078;26;20448;-73
2024/04/17 02:53:24;;;;;;;3.97;2.23;;;5.20;99.90;;;;;;5365419;26;20247;-73
2024/04/17 02:55:52;;;;;;;3.07;2.70;;;5.30;99.90;;;;;;5346076;26;20631;-72
2024/04/17 02:58:18;;;;;;;5.13;2.20;;;5.30;99.90;;;;;;5348290;26;20596;-73
2024/04/17 03:00:46;;;;;;;2.03;1.50;;;5.30;99.90;;;;;;5346952;26;20457;-73
2024/04/17 03:03:12;;;;;;;3.60;1.80;;;5.40;99.90;;;;;;5358413;26;20654;-74
2024/04/17 03:05:40;;;;;;;1.93;1.73;;;5.40;99.90;;;;;;5357385;26;20470;-73
2024/04/17 03:08:09;;;;;;;3.03;2.40;;;5.30;99.90;;;;;;5347210;26;20357;-74
2024/04/17 03:10:38;;;;;;;7.67;1.77;;;5.10;99.90;;;;;;5350589;26;21374;-73
2024/04/17 03:13:04;;;;;;;1.53;1.43;;;5.00;99.90;;;;;;5351397;26;20473;-73
2024/04/17 03:15:35;;;;;;;2.63;1.47;;;5.10;99.90;;;;;;5354806;26;20514;-73
2024/04/17 03:18:01;;;;;;;4.20;1.80;;;5.10;99.90;;;;;;5346450;26;20856;-73
2024/04/17 03:20:30;;;;;;;7.37;2.93;;;5.20;99.90;;;;;;5340493;26;20458;-73
2024/04/17 03:22:56;;;;;;;4.47;2.60;;;5.20;99.90;;;;;;5345770;26;20283;-72
2024/04/17 03:25:27;;;;;;;2.70;1.50;;;5.20;99.90;;;;;;5340885;26;20812;-72
2024/04/17 03:27:52;;;;;;;1.73;1.20;;;5.20;99.90;;;;;;5339108;26;20868;-73
2024/04/17 03:30:21;;;;;;;2.50;1.87;;;5.10;99.90;;;;;;5345631;26;20444;-73
2024/04/17 03:32:47;;;;;;;2.50;1.70;;;5.10;99.90;;;;;;5356639;26;20261;-73
2024/04/17 03:35:16;;;;;;;4.87;1.57;;;5.00;99.90;;;;;;5355508;26;20482;-73
2024/04/17 03:37:50;;;;;;;1.93;1.77;;;5.00;99.90;;;;;;5351305;26;20488;-73
2024/04/17 03:40:19;;;;;;;3.67;1.80;;;5.00;99.90;;;;;;5347974;26;21042;-73
2024/04/17 03:42:50;;;;;;;8.10;1.97;;;4.90;99.90;;;;;;5347811;26;20529;-73
2024/04/17 03:45:18;;;;;;;3.10;2.43;;;4.90;99.90;;;;;;5355145;26;20646;-72
2024/04/17 03:47:47;;;;;;;2.17;1.67;;;5.00;99.90;;;;;;5338764;26;22088;-71
2024/04/17 03:50:13;;;;;;;9.03;1.97;;;4.90;99.90;;;;;;5355073;26;20812;-72
2024/04/17 03:52:42;;;;;;;6.20;2.17;;;5.10;99.90;;;;;;5340037;26;20504;-70
2024/04/17 03:55:07;;;;;;;10.57;2.50;;;4.90;99.90;;;;;;5340006;26;20257;-69
2024/04/17 03:57:36;;;;;;;4.60;2.40;;;5.00;99.90;;;;;;5349242;26;20569;-69
2024/04/17 04:00:05;;;;;;;2.20;1.40;;;5.00;99.90;;;;;;5347742;26;20633;-70
2024/04/17 04:02:34;;;;;;;3.47;1.93;;;5.00;99.90;;;;;;5355828;26;20518;-69
2024/04/17 04:05:00;;;;;;;3.23;1.40;;;5.10;99.90;;;;;;5347065;26;20567;-70
2024/04/17 04:07:29;;;;;;;2.40;2.00;;;5.10;99.90;;;;;;5358578;26;20529;-70
2024/04/17 04:09:55;;;;;;;4.40;2.50;;;5.20;99.90;;;;;;5349427;26;20573;-69
2024/04/17 04:12:23;;;;;;;12.37;3.00;;;5.10;99.90;;;;;;5352788;26;20449;-70
2024/04/17 04:14:49;;;;;;;3.70;1.97;;;5.10;99.90;;;;;;5354065;26;20299;-70
2024/04/17 04:17:20;;;;;;;3.90;2.90;;;5.10;99.90;;;;;;5355190;26;20900;-70
2024/04/17 04:19:46;;;;;;;2.50;1.53;;;5.10;99.90;;;;;;5351588;26;20640;-70
2024/04/17 04:22:14;;;;;;;7.37;2.20;;;5.10;99.90;;;;;;5356200;26;20637;-70
2024/04/17 04:24:40;;;;;;;4.30;2.37;;;5.10;99.90;;;;;;5367173;26;20299;-70
2024/04/17 04:27:10;;;;;;;5.37;2.33;;;5.00;99.90;;;;;;5356065;26;20519;-70
2024/04/17 04:29:35;;;;;;;3.83;1.73;;;5.10;99.90;;;;;;5356527;26;20477;-70
2024/04/17 04:32:04;;;;;;;2.60;1.90;;;5.00;99.90;;;;;;5355081;26;20537;-69
2024/04/17 04:34:32;;;;;;;2.83;1.73;;;5.00;99.90;;;;;;5354293;26;20572;-69
2024/04/17 04:37:01;;;;;;;4.80;2.50;;;5.00;99.90;;;;;;5361487;26;20591;-69
2024/04/17 04:39:27;;;;;;;3.40;2.40;;;5.10;99.90;;;;;;5361104;26;20604;-69
2024/04/17 04:41:55;;;;;;;3.60;2.53;;;5.20;99.90;;;;;;5359525;26;20544;-69
2024/04/17 04:44:21;;;;;;;3.40;2.27;;;5.20;99.90;;;;;;5354156;26;20336;-70
2024/04/17 04:46:51;;;;;;;3.10;2.10;;;5.10;99.90;;;;;;5355746;26;20947;-70
2024/04/17 04:49:17;;;;;;;4.17;2.87;;;5.20;99.90;;;;;;5357772;26;20277;-73
2024/04/17 04:51:48;;;;;;;2.57;1.90;;;5.20;99.90;;;;;;5359707;26;20489;-71
2024/04/17 04:54:14;;;;;;;5.90;2.60;;;5.20;99.90;;;;;;5360008;26;20705;-70
2024/04/17 04:56:42;;;;;;;4.47;2.40;;;5.10;99.90;;;;;;5359144;26;20439;-69
2024/04/17 04:59:08;;;;;;;6.80;2.60;;;5.00;99.90;;;;;;5362653;26;20248;-70
2024/04/17 05:01:36;;;;;;;6.87;3.47;;;4.90;99.90;;;;;;5364391;26;20911;-70
2024/04/17 05:04:02;;;;;;;4.77;2.47;;;5.00;99.90;;;;;;5356162;26;20367;-69
2024/04/17 05:06:31;;;;;;;3.23;2.33;;;5.10;99.90;;;;;;5356796;26;20478;-70
2024/04/17 05:08:59;;;;;;;14.87;3.00;;;5.20;99.90;;;;;;5356078;26;20290;-70
2024/04/17 05:11:27;;;;;;;7.27;2.67;;;5.30;99.90;;;;;;5360877;26;20501;-70
2024/04/17 05:13:53;;;;;;;6.10;2.33;;;5.40;99.90;;;;;;5350100;26;20448;-70
2024/04/17 05:16:22;;;;;;;2.73;2.20;;;5.50;99.90;;;;;;5353562;26;21261;-70
2024/04/17 05:18:50;;;;;;;10.27;4.20;;;5.70;99.90;;;;;;5355460;26;20326;-73
2024/04/17 05:21:18;;;;;;;3.77;2.43;;;5.70;99.90;;;;;;5355306;26;23206;-72
2024/04/17 05:23:44;;;;;;;2.50;1.93;;;5.70;99.90;;;;;;5353451;26;20587;-73
2024/04/17 05:26:15;;;;;;;16.33;2.73;;;5.70;99.90;;;;;;5357139;26;20493;-74
2024/04/17 05:28:41;;;;;;;8.13;2.80;;;5.60;99.90;;;;;;5360747;26;20724;-73
2024/04/17 05:31:09;;;;;;;10.40;2.03;;;5.70;99.90;;;;;;5357311;26;20460;-73
2024/04/17 05:33:35;;;;;;;3.07;2.57;;;5.60;99.90;;;;;;5361148;26;20245;-72
2024/04/17 05:36:03;;;;;;;3.83;3.23;;;5.70;99.90;;;;;;5354128;26;20561;-72
2024/04/17 05:38:29;;;;;;;8.40;3.73;;;5.70;99.90;;;;;;5356051;26;20248;-73
2024/04/17 05:40:57;;;;;;;7.70;3.00;;;5.70;99.90;;;;;;5358072;26;20477;-74
2024/04/17 05:43:26;;;;;;;5.50;3.00;;;5.90;99.90;;;;;;5354576;26;20382;-73
2024/04/17 05:45:54;;;;;;;4.57;2.40;;;6.10;99.90;;;;;;5351823;26;20806;-73
2024/04/17 05:48:20;;;;;;;8.83;2.83;;;6.40;99.90;;;;;;5366614;26;20550;-72
2024/04/17 05:50:49;;;;;;;3.33;3.03;;;6.40;99.90;;;;;;5356457;26;20465;-73
2024/04/17 05:53:14;;;;;;;14.67;4.67;;;6.60;99.90;;;;;;5342590;26;20380;-73
2024/04/17 05:55:43;;;;;;;6.10;2.43;;;6.70;99.90;;;;;;5358570;26;20461;-72
2024/04/17 05:58:08;;;;;;;9.30;3.80;;;6.90;99.90;;;;;;5353635;26;20607;-73
2024/04/17 06:00:39;;;;;;;8.13;3.87;;;7.00;99.90;;;;;;5359043;26;20450;-73
2024/04/17 06:03:05;;;;;;;11.50;3.47;;;7.20;99.90;;;;;;5365803;26;20329;-73
2024/04/17 06:05:34;;;;;;;5.83;2.67;;;7.30;99.90;;;;;;5359497;26;20457;-74
2024/04/17 06:07:59;;;;;;;8.33;2.30;;;7.80;99.90;;;;;;5353752;26;20296;-73
2024/04/17 06:10:28;;;;;;;3.40;2.43;;;8.10;99.90;;;;;;5357520;26;20469;-73
2024/04/17 06:12:54;;;;;;;4.57;1.93;;;8.30;99.90;;;;;;5348628;26;20247;-73
2024/04/17 06:15:22;;;;;;;4.23;2.20;;;8.30;99.90;;;;;;5359128;26;20520;-74
2024/04/17 06:17:51;;;;;;;3.53;3.23;;;8.20;99.90;;;;;;5354638;26;20236;-74
2024/04/17 06:20:19;;;;;;;4.70;1.97;;;8.10;99.90;;;;;;5363307;26;20523;-73
2024/04/17 06:22:45;;;;;;;5.60;2.40;;;8.10;99.90;;;;;;5361664;26;20643;-73
2024/04/17 06:25:13;;;;;;;8.47;2.83;;;8.30;99.90;;;;;;5349955;26;20444;-73
2024/04/17 06:27:39;;;;;;;6.87;1.80;;;8.20;99.90;;;;;;5358825;26;20280;-73
2024/04/17 06:30:09;;;;;;;17.97;2.50;;;8.50;99.90;;;;;;5351755;26;20523;-73
2024/04/17 06:32:35;;;;;;;3.70;1.67;;;8.50;99.90;;;;;;5359556;26;20688;-72
2024/04/17 06:35:06;;;;;;;2.00;1.80;;;8.50;99.90;;;;;;5353901;26;20470;-72
2024/04/17 06:37:32;;;;;;;5.67;2.57;;;8.10;99.90;;;;;;5362962;26;20291;-72
2024/04/17 06:40:00;;;;;;;5.87;1.70;;;7.90;99.90;;;;;;5357538;26;20561;-72
2024/04/17 06:42:26;;;;;;;3.23;2.70;;;7.70;99.90;;;;;;5350014;26;21201;-73
2024/04/17 06:44:54;;;;;;;7.80;1.97;;;7.60;99.90;;;;;;5354837;26;20608;-72
2024/04/17 06:47:20;;;;;;;3.13;2.03;;;7.70;99.90;;;;;;5360333;26;20255;-72
2024/04/17 06:49:49;;;;;;;3.90;2.10;;;7.60;99.90;;;;;;5360899;26;20438;-73
2024/04/17 06:52:18;;;;;;;5.03;2.57;;;7.30;99.90;;;;;;5357267;26;20825;-73
2024/04/17 06:54:46;;;;;;;4.27;2.97;;;7.60;99.90;;;;;;5361638;26;20501;-73
2024/04/17 06:57:12;;;;;;;2.53;2.33;;;7.50;99.90;;;;;;5358310;26;20467;-73
2024/04/17 06:59:40;;;;;;;6.80;2.60;;;7.40;99.90;;;;;;5360453;26;20507;-72
2024/04/17 07:02:06;;;;;;;3.07;2.50;;;7.50;99.90;;;;;;5357203;26;20360;-72
2024/04/17 07:04:34;;;;;;;5.47;2.97;;;7.50;99.90;;;;;;5356519;26;20536;-73
2024/04/17 07:07:00;;;;;;;12.63;2.20;;;7.40;99.90;;;;;;5376465;26;20343;-73
2024/04/17 07:09:31;;;;;;;3.83;1.93;;;7.40;99.90;;;;;;5357744;26;20454;-73
2024/04/17 07:11:57;;;;;;;3.47;2.10;;;7.40;99.90;;;;;;5360346;26;20785;-73
2024/04/17 07:14:25;;;;;;;2.73;2.00;;;7.40;99.90;;;;;;5350168;26;20475;-73
2024/04/17 07:16:51;;;;;;;2.13;1.20;;;7.40;99.90;;;;;;5361645;26;20358;-73
2024/04/17 07:19:21;;;;;;;3.53;2.20;;;7.30;99.90;;;;;;5350699;26;20447;-74
2024/04/17 07:21:47;;;;;;;2.20;1.60;;;7.10;99.90;;;;;;5357854;26;20702;-73
2024/04/17 07:24:15;;;;;;;2.30;1.30;;;7.10;99.90;;;;;;5349695;26;20466;-72
2024/04/17 07:26:44;;;;;;;2.33;1.60;;;7.00;99.90;;;;;;5361482;26;20576;-73
2024/04/17 07:29:13;;;;;;;1.13;0.80;;;6.80;99.90;;;;;;5354018;26;20462;-73
2024/04/17 07:31:39;;;;;;;1.10;1.00;;;6.60;99.90;;;;;;5350912;26;20486;-72
2024/04/17 07:34:07;;;;;;;2.40;1.20;;;6.60;99.90;;;;;;5351624;26;20490;-73
2024/04/17 07:36:33;;;;;;;2.60;1.73;;;6.70;99.90;;;;;;5353952;26;20355;-72
2024/04/17 07:39:02;;;;;;;1.30;1.00;;;6.80;99.90;;;;;;5357379;26;20484;-73
2024/04/17 07:41:27;;;;;;;1.30;1.20;;;7.10;99.90;;;;;;5362170;26;20458;-73
2024/04/17 07:43:58;;;;;;;1.10;0.90;;;7.50;99.90;;;;;;5348473;26;20511;-73
2024/04/17 07:46:24;;;;;;;1.40;1.30;;;7.60;99.90;;;;;;5353998;26;20236;-73
2024/04/17 07:48:54;;;;;;;2.70;1.67;;;7.50;99.90;;;;;;5355594;26;21281;-72
2024/04/17 07:51:20;;;;;;;2.20;1.47;;;7.50;99.90;;;;;;5357828;26;20443;-73
2024/04/17 07:53:48;;;;;;;1.20;0.90;;;7.70;99.90;;;;;;5361761;26;21006;-73
2024/04/17 07:56:14;;;;;;;2.10;1.50;;;7.80;99.90;;;;;;5360419;26;20362;-73
2024/04/17 07:58:43;;;;;;;2.73;1.40;;;8.00;99.90;;;;;;5357022;26;20478;-74
2024/04/17 08:01:11;;;;;;;1.30;1.20;;;7.90;99.90;;;;;;5367602;26;20248;-73
2024/04/17 08:03:39;;;;;;;3.00;1.33;;;7.90;99.90;;;;;;5353582;26;20504;-73
2024/04/17 08:06:05;;;;;;;2.67;1.53;;;7.90;99.90;;;;;;5358415;26;20573;-73
2024/04/17 08:08:35;;;;;;;1.60;1.50;;;8.00;99.90;;;;;;5359487;26;20814;-73
2024/04/17 08:11:01;;;;;;;1.10;0.97;;;8.10;99.90;;;;;;5354231;26;20446;-72
2024/04/17 08:13:30;;;;;;;3.07;1.90;;;8.00;99.90;;;;;;5357102;26;20594;-72
2024/04/17 08:15:56;;;;;;;2.43;1.73;;;8.00;99.90;;;;;;5352331;26;20454;-73
2024/04/17 08:18:27;;;;;;;1.40;1.30;;;7.90;99.90;;;;;;5361467;26;20519;-73
2024/04/17 08:20:55;;;;;;;3.47;1.60;;;7.80;99.90;;;;;;5355228;26;20738;-74
2024/04/17 08:23:23;;;;;;;1.50;1.40;;;7.80;99.90;;;;;;5354949;26;20470;-73
2024/04/17 08:25:49;;;;;;;1.40;1.23;;;7.80;99.90;;;;;;5359301;26;20599;-73
2024/04/17 08:28:17;;;;;;;1.00;0.80;;;7.80;99.90;;;;;;5361949;26;21555;-73
2024/04/17 08:30:43;;;;;;;1.27;1.07;;;7.60;99.90;;;;;;5357422;26;20356;-73
2024/04/17 08:33:12;;;;;;;1.70;1.00;;;7.50;99.90;;;;;;5363221;26;20547;-74
2024/04/17 08:35:40;;;;;;;1.20;1.00;;;7.40;99.90;;;;;;5359125;26;20561;-72
2024/04/17 08:38:09;;;;;;;3.13;1.37;;;7.60;99.90;;;;;;5352003;26;20443;-73
2024/04/17 08:40:36;;;;;;;3.23;1.73;;;7.70;99.90;;;;;;5359252;26;20489;-72
2024/04/17 08:43:06;;;;;;;2.10;1.87;;;7.70;99.90;;;;;;5362223;26;20528;-73
2024/04/17 08:45:33;;;;;;;1.97;1.77;;;7.70;99.90;;;;;;5359628;26;20531;-73
2024/04/17 08:48:04;;;;;;;1.60;1.33;;;8.00;99.90;;;;;;5373987;26;20532;-72
2024/04/17 08:50:31;;;;;;;1.10;0.93;;;8.10;99.90;;;;;;5359498;26;21033;-72
2024/04/17 08:53:03;;;;;;;1.40;1.00;;;7.90;99.90;;;;;;5365760;26;21139;-72
2024/04/17 08:55:30;;;;;;;1.20;1.00;;;7.80;99.90;;;;;;5355221;26;20632;-73
2024/04/17 08:57:59;;;;;;;3.10;0.93;;;7.70;99.90;;;;;;5360768;26;20538;-73
2024/04/17 09:00:26;;;;;;;1.00;0.77;;;7.90;99.90;;;;;;5353463;26;20451;-73
2024/04/17 09:02:58;;;;;;;1.20;0.77;;;8.10;99.90;;;;;;5355522;26;20513;-72
2024/04/17 09:05:25;;;;;;;1.87;1.00;;;8.10;99.90;;;;;;5362935;26;20523;-72
2024/04/17 09:07:55;;;;;;;7.83;1.70;;;8.20;99.90;;;;;;5367331;26;20477;-72
2024/04/17 09:10:24;;;;;;;1.40;1.30;;;8.50;99.90;;;;;;5363472;26;20482;-72
2024/04/17 09:12:53;;;;;;;2.50;1.30;;;8.80;99.90;;;;;;5360097;26;20528;-72
2024/04/17 09:15:20;;;;;;;1.10;1.00;;;9.10;99.90;;;;;;5354314;26;20572;-72
2024/04/17 09:17:50;;;;;;;1.00;0.77;;;9.10;99.90;;;;;;5359829;26;20467;-73
2024/04/17 09:20:16;;;;;;;1.20;0.93;;;9.00;99.90;;;;;;5357278;26;20478;-73
2024/04/17 09:22:44;;;;;;;1.47;1.13;;;8.90;99.90;;;;;;5359287;26;20486;-73
2024/04/17 09:25:13;;;;;;;0.90;0.70;;;8.60;99.90;;;;;;5353925;26;20466;-73
2024/04/17 09:27:44;;;;;;;1.17;0.90;;;8.60;99.90;;;;;;5362690;26;21178;-73
2024/04/17 09:30:10;;;;;;;1.00;0.80;;;8.60;99.90;;;;;;5354370;26;20475;-72
2024/04/17 09:32:39;;;;;;;1.10;0.97;;;8.80;99.90;;;;;;5355598;26;20452;-72
2024/04/17 09:35:09;;;;;;;3.23;1.27;;;8.70;99.90;;;;;;5360686;26;20502;-72
2024/04/17 09:37:38;;;;;;;1.60;1.13;;;8.90;99.90;;;;;;5361772;26;20594;-72
2024/04/17 09:40:05;;;;;;;7.10;1.83;;;9.30;99.90;;;;;;5356638;26;20478;-72
2024/04/17 09:42:37;;;;;;;1.10;0.80;;;9.10;99.90;;;;;;5349704;26;20524;-72
2024/04/17 09:45:11;;;;;;;1.30;0.93;;;8.90;99.90;;;;;;5366379;26;20462;-72
2024/04/17 09:47:42;;;;;;;1.97;0.90;;;8.90;99.90;;;;;;5356067;26;20510;-73
2024/04/17 09:50:14;;;;;;;6.30;1.67;;;9.30;99.90;;;;;;5365323;26;20569;-73
2024/04/17 09:52:45;;;;;;;1.40;1.07;;;9.70;99.90;;;;;;5360990;26;20593;-73
2024/04/17 09:55:12;;;;;;;1.30;0.97;;;10.30;99.90;;;;;;5362043;26;20555;-73
2024/04/17 09:57:41;;;;;;;1.30;0.83;;;10.80;99.90;;;;;;5357763;26;20475;-73
2024/04/17 10:00:12;;;;;;;10.53;1.30;;;11.10;99.90;;;;;;5360409;26;20541;-72
2024/04/17 10:02:42;;;;;;;2.00;1.80;;;11.80;99.90;;;;;;5353933;26;20646;-73
2024/04/17 10:05:10;;;;;;;1.83;0.90;;;12.60;99.90;;;;;;5366723;26;21126;-73
2024/04/17 10:07:40;;;;;;;4.87;0.83;;;13.00;99.90;;;;;;5360332;26;20525;-73
2024/04/17 10:10:09;;;;;;;1.40;0.93;;;12.60;99.90;;;;;;5357397;26;20689;-73
2024/04/17 10:12:39;;;;;;;1.00;0.70;;;12.40;99.90;;;;;;5358056;26;20534;-72
2024/04/17 10:15:11;;;;;;;2.80;0.90;;;12.10;99.90;;;;;;5362465;26;20574;-73
2024/04/17 10:17:39;;;;;;;1.50;0.93;;;11.50;99.90;;;;;;5350989;26;20475;-73
2024/04/17 10:20:24;;;;;;;2.97;1.53;;;11.70;99.90;;;;;;5361107;26;20594;-73
2024/04/17 10:22:52;;;;;;;1.73;1.00;;;11.80;99.90;;;;;;5347586;26;20534;-73
2024/04/17 10:25:26;;;;;;;1.10;0.80;;;11.80;99.90;;;;;;5357090;26;20534;-73
2024/04/17 10:27:54;;;;;;;2.70;1.10;;;11.90;99.90;;;;;;5357442;26;20530;-74
2024/04/17 10:30:23;;;;;;;3.20;1.43;;;11.90;99.90;;;;;;5353302;26;20604;-73
2024/04/17 10:32:51;;;;;;;2.57;1.60;;;12.40;99.90;;;;;;5354096;26;20485;-73
2024/04/17 10:35:17;;;;;;;2.10;1.10;;;12.60;99.90;;;;;;5359524;26;20912;-73
2024/04/17 10:37:47;;;;;;;3.47;1.40;;;12.20;99.90;;;;;;5361105;26;20524;-73
2024/04/17 10:40:14;;;;;;;1.93;1.40;;;12.10;99.90;;;;;;5350481;26;20921;-73
2024/04/17 10:42:43;;;;;;;2.83;2.33;;;12.00;99.90;;;;;;5351035;26;22106;-74
2024/04/17 10:45:10;;;;;;;3.83;1.40;;;11.90;99.90;;;;;;5359476;26;20514;-73
2024/04/17 10:47:41;;;;;;;2.10;1.77;;;11.90;99.90;;;;;;5366621;26;20468;-74
2024/04/17 10:50:07;;;;;;;2.00;1.80;;;11.80;99.90;;;;;;5363775;26;20493;-73
2024/04/17 10:52:35;;;;;;;5.53;2.07;;;11.90;99.90;;;;;;5360332;26;23683;-72
2024/04/17 10:55:04;;;;;;;3.60;2.27;;;12.00;99.90;;;;;;5361471;26;20389;-73
2024/04/17 10:57:33;;;;;;;2.77;1.70;;;12.30;99.90;;;;;;5359297;26;20451;-74
2024/04/17 10:59:59;;;;;;;2.40;1.50;;;13.20;99.90;;;;;;5362171;26;21125;-74
2024/04/17 11:02:30;;;;;;;2.07;1.57;;;13.90;99.90;;;;;;5357672;26;20462;-73
2024/04/17 11:05:01;;;;;;;1.57;1.10;;;14.20;99.90;;;;;;5353705;26;20596;-74
2024/04/17 11:07:31;;;;;;;2.13;1.93;;;15.30;99.90;;;;;;5357157;26;20885;-75
2024/04/17 11:09:57;;;;;;;2.20;1.70;;;16.30;99.90;;;;;;5359947;26;21353;-73
2024/04/17 11:12:26;;;;;;;1.93;1.30;;;16.30;99.90;;;;;;5358698;26;20470;-73
2024/04/17 11:14:58;;;;;;;2.50;1.43;;;16.60;99.90;;;;;;5360438;26;20236;-73
2024/04/17 11:17:27;;;;;;;1.87;1.50;;;16.40;99.90;;;;;;5352773;26;20934;-73
2024/04/17 11:19:53;;;;;;;2.00;1.40;;;16.30;99.90;;;;;;5352504;26;20474;-73
2024/04/17 11:22:24;;;;;;;4.90;1.90;;;15.70;99.90;;;;;;5362054;26;20604;-72
2024/04/17 11:24:51;;;;;;;3.30;1.60;;;15.50;99.90;;;;;;5359552;26;20944;-72
2024/04/17 11:27:20;;;;;;;1.60;1.47;;;14.70;99.90;;;;;;5360775;26;20479;-73
2024/04/17 11:29:46;;;;;;;1.47;1.17;;;14.50;99.90;;;;;;5360061;26;20541;-73
2024/04/17 11:32:15;;;;;;;3.10;1.33;;;14.30;99.90;;;;;;5361242;26;20482;-73
2024/04/17 11:34:41;;;;;;;2.03;1.40;;;13.90;99.90;;;;;;5355166;26;20496;-73
2024/04/17 11:37:10;;;;;;;4.60;1.70;;;13.30;99.90;;;;;;5356497;26;20472;-74
2024/04/17 11:39:39;;;;;;;1.63;1.37;;;13.00;99.90;;;;;;5363977;26;20559;-75
2024/04/17 11:42:11;;;;;;;2.67;1.67;;;12.70;99.90;;;;;;5362582;26;20481;-74
2024/04/17 11:44:38;;;;;;;6.00;2.07;;;12.70;99.90;;;;;;5353560;26;20493;-73
2024/04/17 11:47:09;;;;;;;3.53;1.80;;;13.00;99.90;;;;;;5355887;26;20488;-73
2024/04/17 11:49:35;;;;;;;4.40;1.60;;;13.00;99.90;;;;;;5356468;26;20473;-73
2024/04/17 11:52:04;;;;;;;4.00;1.00;;;12.80;99.90;;;;;;5359456;26;20766;-74
2024/04/17 11:54:30;;;;;;;1.60;1.30;;;12.20;99.90;;;;;;5362694;26;20326;-72
2024/04/17 11:57:01;;;;;;;5.80;1.30;;;11.70;99.90;;;;;;5367248;26;21246;-73
2024/04/17 11:59:27;;;;;;;1.77;1.03;;;11.50;99.90;;;;;;5365930;26;20251;-72
2024/04/17 12:01:55;;;;;;;2.60;1.43;;;11.10;99.90;;;;;;5357025;26;20593;-74
2024/04/17 12:04:21;;;;;;;1.30;1.00;;;10.80;99.90;;;;;;5359257;26;20613;-72
2024/04/17 12:06:52;;;;;;;1.57;1.00;;;10.50;99.90;;;;;;5356790;26;20516;-72
2024/04/17 12:09:17;;;;;;;1.20;1.10;;;10.30;99.90;;;;;;5362563;26;20280;-72
2024/04/17 12:11:46;;;;;;;1.20;0.97;;;10.20;99.90;;;;;;5355093;26;20488;-72
2024/04/17 12:14:14;;;;;;;1.10;0.80;;;10.10;99.90;;;;;;5360849;26;20400;-72
2024/04/17 12:16:44;;;;;;;1.10;0.80;;;10.00;99.90;;;;;;5356458;26;20616;-73
2024/04/17 12:19:09;;;;;;;1.30;1.10;;;9.80;99.90;;;;;;5365970;26;20466;-72
2024/04/17 12:21:38;;;;;;;1.57;1.33;;;9.50;99.90;;;;;;5361430;26;20481;-72
2024/04/17 12:24:08;;;;;;;1.40;0.90;;;9.30;99.90;;;;;;5369208;26;20455;-72
2024/04/17 12:26:55;;;;;;;1.30;1.00;;;9.40;99.90;;;;;;5360422;26;21012;-74
2024/04/17 12:29:26;;;;;;;1.33;1.23;;;9.60;99.90;;;;;;5364738;26;20593;-73
2024/04/17 12:31:54;;;;;;;1.20;0.83;;;10.30;99.90;;;;;;5355335;26;20526;-73
2024/04/17 12:34:23;;;;;;;1.40;1.30;;;10.90;99.90;;;;;;5358979;26;20594;-73
2024/04/17 12:36:51;;;;;;;4.10;1.00;;;11.80;99.90;;;;;;5356998;26;20482;-74
2024/04/17 12:39:17;;;;;;;3.00;1.00;;;13.60;99.90;;;;;;5363543;26;20530;-73
2024/04/17 12:41:46;;;;;;;2.03;1.03;;;15.00;99.90;;;;;;5357708;26;20450;-73
2024/04/17 12:44:14;;;;;;;1.43;1.10;;;16.60;99.90;;;;;;5365188;26;20259;-73
2024/04/17 12:46:45;;;;;;;1.53;1.23;;;17.70;99.90;;;;;;5356614;26;20633;-73
2024/04/17 12:49:11;;;;;;;2.07;1.13;;;17.50;99.90;;;;;;5357670;26;20538;-74
2024/04/17 12:51:39;;;;;;;2.10;1.50;;;16.40;99.90;;;;;;5355378;26;20861;-74
2024/04/17 12:54:08;;;;;;;2.17;1.40;;;15.10;99.90;;;;;;5362777;26;20596;-73
2024/04/17 12:56:36;;;;;;;1.40;1.20;;;14.30;99.90;;;;;;5358091;26;20663;-73
2024/04/17 12:59:05;;;;;;;1.70;1.47;;;13.90;99.90;;;;;;5361524;26;20462;-72